Pagrindinis puslapis
METAR-TAF:

METAR-TAF

Oro uostai :

Čanakalė, Turkija

platuma: 40-08N, ilguma: 026-24E, Aukštis: 3 m

Dabartinis oras

Ataskaita buvo paskelbta 27 minutes, ne 05:50 UTC
Vėjas 6 kt iš Šiaurės Rytų
Temperatūra 7°C
Drėgmė 61%
Slėgis 1018 hPa
Matomumas 10 km arba daugiau
nėra debesų žemiau 1500 m ir nėra kamuolinių lietaus debesų

METAR: LTBH 100550Z 04006KT CAVOK 07/00 Q1018

Laikas: 09:17 (06:17 UTC)

Prognozė

Ataskaita buvo paskelbta 1 valandą ir 37 minutes, ne 04:40 UTC
Prognozė galioja nuo 10 metu 06 UTC su 10 metu 15 UTC
Vėjas 2 kt nuo kintamojo kryptimis
Matomumas 10 km arba daugiau
nėra debesų žemiau 1500 m ir nėra kamuolinių lietaus debesų

TAF: LTBH 100440Z 1006/1015 VRB02KT CAVOK

Orai ataskaitas ir orų prognozės (METAR, TAF).

turimą stotys yra geltonos ir raudonos taškus žemėlapyje.

Perkelti pele per norėdami pamatyti stoties vardą.

Tada spustelėkite, norėdami matyti oro stebėjimo ir prognozės.

Norėdami pakeisti žemėlapį: spustelėkite ant žalios mygtukų su juodo kryžiaus žemyn,; žalią mygtuką su brūkšneliu, jei norite nutolinti; arba žalių rodyklių gretimoms žemėlapius.


METAR-TAF: